Time;durP1;ratioP1;P1;durP2;ratioP2;P2;SDS_P1;SDS_P2;PMS_P1;PMS_P2;Temp;Humidity;BMP_temperature;BMP_pressure;BME280_temperature;BME280_humidity;BME280_pressure;Samples;Min_cycle;Max_cycle;Signal;HPM_P1;HPM_P2
2024/03/24 00:01:39;;;;;;;2.53;1.48;;;;;;;5.36;100.00;100066.25;6249835;28;20139;-75
2024/03/24 00:04:40;;;;;;;2.78;1.77;;;;;;;5.38;100.00;100071.38;6250915;28;20049;-74
2024/03/24 00:07:42;;;;;;;3.35;1.98;;;;;;;5.32;100.00;100072.50;6251431;28;20056;-75
2024/03/24 00:10:44;;;;;;;3.63;2.20;;;;;;;5.40;100.00;100075.59;6251427;28;20060;-75
2024/03/24 00:13:44;;;;;;;5.65;1.85;;;;;;;5.36;100.00;100066.25;6251036;28;20075;-75
2024/03/24 00:16:45;;;;;;;6.15;2.08;;;;;;;5.37;100.00;100056.69;6247315;28;20045;-75
2024/03/24 00:19:46;;;;;;;2.97;2.30;;;;;;;5.30;100.00;100050.88;6250027;28;20599;-75
2024/03/24 00:22:49;;;;;;;7.45;2.35;;;;;;;5.31;100.00;100045.63;6252039;28;20056;-75
2024/03/24 00:25:50;;;;;;;7.82;2.47;;;;;;;5.31;100.00;100042.13;6254943;28;20441;-75
2024/03/24 00:28:50;;;;;;;6.50;2.10;;;;;;;5.31;100.00;100043.00;6255262;28;20049;-75
2024/03/24 00:31:52;;;;;;;5.45;2.53;;;;;;;5.31;100.00;100035.19;6254880;28;20358;-73
2024/03/24 00:34:53;;;;;;;4.90;2.95;;;;;;;5.27;100.00;100030.19;6254752;28;20045;-74
2024/03/24 00:37:55;;;;;;;4.60;2.60;;;;;;;5.26;100.00;100036.28;6254491;28;20466;-75
2024/03/24 00:40:56;;;;;;;6.97;3.05;;;;;;;5.24;100.00;100019.88;6254226;28;20171;-75
2024/03/24 00:43:56;;;;;;;8.57;3.33;;;;;;;5.16;100.00;100015.00;6254846;28;20454;-75
2024/03/24 00:46:58;;;;;;;8.00;3.80;;;;;;;5.14;100.00;100022.03;6254388;28;20056;-75
2024/03/24 00:49:58;;;;;;;13.20;4.63;;;;;;;5.07;100.00;99999.75;6254028;28;20045;-75
2024/03/24 00:53:00;;;;;;;10.93;4.45;;;;;;;5.12;100.00;99994.34;6254329;28;20365;-75
2024/03/24 00:56:01;;;;;;;9.15;3.90;;;;;;;5.00;100.00;100004.41;6254218;28;20456;-75
2024/03/24 00:59:02;;;;;;;9.02;4.75;;;;;;;5.03;100.00;99992.97;6254968;28;20053;-74
2024/03/24 01:02:03;;;;;;;8.32;4.10;;;;;;;5.02;100.00;99988.69;6253984;28;20050;-75
2024/03/24 01:05:05;;;;;;;9.95;4.95;;;;;;;5.01;100.00;99980.03;6254297;28;20100;-74
2024/03/24 01:08:07;;;;;;;8.48;5.05;;;;;;;5.07;100.00;99971.97;6253771;28;20060;-75
2024/03/24 01:11:09;;;;;;;10.90;4.72;;;;;;;5.00;100.00;99972.31;6253715;28;20045;-74
2024/03/24 01:14:10;;;;;;;12.30;5.82;;;;;;;5.02;100.00;99965.25;6253995;28;20057;-74
2024/03/24 01:17:11;;;;;;;10.88;5.63;;;;;;;5.05;100.00;99962.53;6253429;28;20455;-74
2024/03/24 01:20:14;;;;;;;9.75;5.57;;;;;;;5.08;100.00;99962.38;6252730;28;20098;-74
2024/03/24 01:23:16;;;;;;;11.40;5.68;;;;;;;4.99;100.00;99967.97;6253201;28;20052;-75
2024/03/24 01:26:18;;;;;;;19.80;6.63;;;;;;;4.96;100.00;99960.31;6252932;28;20053;-75
2024/03/24 01:29:18;;;;;;;14.13;5.88;;;;;;;4.93;100.00;99950.88;6253764;28;20096;-74
2024/03/24 01:32:19;;;;;;;10.80;6.05;;;;;;;5.02;100.00;99942.66;6253075;28;20091;-74
2024/03/24 01:35:21;;;;;;;12.73;6.70;;;;;;;5.05;100.00;99942.53;6253027;28;20053;-74
2024/03/24 01:38:22;;;;;;;11.18;6.40;;;;;;;5.02;100.00;99944.44;6253380;28;20083;-75
2024/03/24 01:41:24;;;;;;;18.30;7.35;;;;;;;4.97;100.00;99925.56;6250456;28;20441;-74
2024/03/24 01:44:24;;;;;;;12.48;6.88;;;;;;;4.95;100.00;99928.25;6252770;28;20046;-75
2024/03/24 01:47:25;;;;;;;14.98;7.45;;;;;;;4.94;100.00;99923.09;6251916;28;20056;-75
2024/03/24 01:50:27;;;;;;;15.60;7.25;;;;;;;5.01;100.00;99935.78;6252223;28;20080;-75
2024/03/24 01:53:31;;;;;;;11.23;7.18;;;;;;;4.92;100.00;99920.56;6252562;28;20041;-75
2024/03/24 01:56:32;;;;;;;15.07;7.35;;;;;;;4.94;100.00;99918.72;6252430;28;20449;-75
2024/03/24 01:59:33;;;;;;;16.20;7.35;;;;;;;5.02;100.00;99900.16;6252576;28;20052;-75
2024/03/24 02:02:34;;;;;;;16.02;8.40;;;;;;;5.01;100.00;99901.09;6252507;28;20046;-76
2024/03/24 02:05:35;;;;;;;15.38;8.90;;;;;;;5.03;100.00;99892.28;6252144;28;20049;-76
2024/03/24 02:08:37;;;;;;;15.77;8.45;;;;;;;5.02;100.00;99882.78;6252730;28;20084;-74
2024/03/24 02:11:38;;;;;;;15.65;7.90;;;;;;;5.07;100.00;99886.03;6250648;28;20131;-75
2024/03/24 02:14:39;;;;;;;13.05;7.82;;;;;;;5.14;100.00;99884.00;6252608;28;20041;-74
2024/03/24 02:17:40;;;;;;;12.98;7.53;;;;;;;5.22;100.00;99875.81;6241262;28;20049;-74
2024/03/24 02:20:41;;;;;;;21.02;8.45;;;;;;;5.20;100.00;99868.09;6248906;28;20046;-73
2024/03/24 02:23:43;;;;;;;19.05;8.43;;;;;;;5.24;100.00;99864.44;6252610;28;20045;-73
2024/03/24 02:26:44;;;;;;;18.40;8.95;;;;;;;5.17;100.00;99863.00;6252403;28;20484;-72
2024/03/24 02:29:45;;;;;;;13.93;8.05;;;;;;;5.19;100.00;99858.59;6251929;28;20049;-74
2024/03/24 02:32:46;;;;;;;14.65;8.13;;;;;;;5.23;100.00;99851.50;6252491;28;20358;-73
2024/03/24 02:35:50;;;;;;;23.77;9.80;;;;;;;5.25;100.00;99852.25;6252172;28;20052;-74
2024/03/24 02:38:51;;;;;;;14.18;9.07;;;;;;;5.22;100.00;99853.25;6252303;28;20061;-74
2024/03/24 02:41:53;;;;;;;18.45;9.65;;;;;;;5.18;100.00;99845.63;6251516;28;20071;-76
2024/03/24 02:44:53;;;;;;;18.98;10.32;;;;;;;5.28;100.00;99844.31;6251075;28;20052;-73
2024/03/24 02:47:54;;;;;;;20.15;9.43;;;;;;;5.25;100.00;99834.03;6251958;28;20057;-76
2024/03/24 02:50:55;;;;;;;14.88;8.50;;;;;;;5.24;100.00;99840.16;6251151;28;20050;-74
2024/03/24 02:53:57;;;;;;;17.02;8.95;;;;;;;5.28;100.00;99828.69;6251804;28;20397;-74
2024/03/24 02:56:58;;;;;;;16.13;8.48;;;;;;;5.34;100.00;99824.03;6251399;28;20057;-74
2024/03/24 02:59:59;;;;;;;17.00;8.95;;;;;;;5.29;100.00;99819.94;6251312;28;20049;-74
2024/03/24 03:03:00;;;;;;;21.80;9.82;;;;;;;5.35;100.00;99809.22;6251515;28;20060;-74
2024/03/24 03:06:01;;;;;;;16.25;9.65;;;;;;;5.38;100.00;99800.44;6248381;28;20053;-74
2024/03/24 03:09:07;;;;;;;28.02;10.00;;;;;;;5.46;100.00;99793.94;6251165;28;20054;-74
2024/03/24 03:12:09;;;;;;;18.10;9.13;;;;;;;5.38;100.00;99780.44;6250767;28;20123;-73
2024/03/24 03:15:14;;;;;;;20.80;9.70;;;;;;;5.36;100.00;99777.06;6250646;28;20049;-73
2024/03/24 03:18:16;;;;;;;19.92;9.50;;;;;;;5.40;100.00;99772.53;6250988;28;20053;-73
2024/03/24 03:21:16;;;;;;;19.70;9.00;;;;;;;5.47;100.00;99766.13;6249981;28;20442;-74
2024/03/24 03:24:19;;;;;;;20.98;9.48;;;;;;;5.43;100.00;99769.78;6250935;28;20049;-74
2024/03/24 03:27:19;;;;;;;17.52;9.07;;;;;;;5.44;100.00;99763.66;6250207;28;20052;-74
2024/03/24 03:30:21;;;;;;;21.02;9.43;;;;;;;5.45;100.00;99762.72;6250341;28;20450;-74
2024/03/24 03:33:21;;;;;;;17.27;9.23;;;;;;;5.40;100.00;99764.72;6250424;28;20053;-73
2024/03/24 03:36:22;;;;;;;18.13;9.68;;;;;;;5.48;100.00;99753.00;6250441;28;20081;-74
2024/03/24 03:39:25;;;;;;;18.00;9.68;;;;;;;5.49;100.00;99748.66;6250369;28;20057;-74
2024/03/24 03:42:26;;;;;;;18.00;9.93;;;;;;;5.47;100.00;99750.50;6249834;28;20365;-74
2024/03/24 03:45:27;;;;;;;17.83;9.32;;;;;;;5.55;100.00;99740.53;6249932;28;20042;-75
2024/03/24 03:48:28;;;;;;;17.52;10.25;;;;;;;5.55;100.00;99736.19;6250500;28;20461;-74
2024/03/24 03:51:36;;;;;;;20.17;10.25;;;;;;;5.62;100.00;99738.47;6249717;28;20042;-75
2024/03/24 03:54:39;;;;;;;22.15;10.45;;;;;;;5.62;100.00;99718.47;6250351;28;20053;-75
2024/03/24 03:57:40;;;;;;;23.30;10.25;;;;;;;5.64;100.00;99715.81;6241099;28;20078;-74
2024/03/24 04:00:42;;;;;;;20.88;9.85;;;;;;;5.52;100.00;99723.28;6249678;28;20045;-74
2024/03/24 04:03:43;;;;;;;20.92;10.45;;;;;;;5.58;100.00;99716.91;6242335;28;20042;-75
2024/03/24 04:06:45;;;;;;;21.27;11.32;;;;;;;5.61;100.00;99711.56;6250713;28;20350;-75
2024/03/24 04:09:46;;;;;;;24.35;10.85;;;;;;;5.61;100.00;99711.56;6251273;28;20049;-75
2024/03/24 04:12:48;;;;;;;20.95;10.90;;;;;;;5.58;100.00;99702.13;6251264;28;20053;-74
2024/03/24 04:15:48;;;;;;;20.85;10.73;;;;;;;5.57;100.00;99703.06;6250409;28;20045;-74
2024/03/24 04:18:49;;;;;;;21.77;11.38;;;;;;;5.56;100.00;99698.78;6249470;28;20049;-74
2024/03/24 04:21:50;;;;;;;25.02;10.15;;;;;;;5.47;100.00;99701.00;6249627;28;20049;-74
2024/03/24 04:24:53;;;;;;;19.05;10.02;;;;;;;5.48;100.00;99687.03;6249722;28;20339;-75
2024/03/24 04:27:53;;;;;;;18.38;8.90;;;;;;;5.43;100.00;99692.47;6249994;28;20123;-74
2024/03/24 04:30:54;;;;;;;24.77;8.75;;;;;;;5.33;100.00;99692.09;6249729;28;20073;-75
2024/03/24 04:33:55;;;;;;;17.45;8.25;;;;;;;5.20;100.00;99700.56;6249699;28;20405;-74
2024/03/24 04:36:56;;;;;;;17.05;7.72;;;;;;;4.90;100.00;99684.63;6249611;28;20049;-75
2024/03/24 04:39:58;;;;;;;15.27;7.82;;;;;;;4.80;100.00;99685.06;6249147;28;20349;-76
2024/03/24 04:42:59;;;;;;;18.60;7.57;;;;;;;4.64;100.00;99693.66;6249740;28;20048;-74
2024/03/24 04:46:00;;;;;;;14.45;6.47;;;;;;;4.60;100.00;99687.75;6249219;28;20038;-76
2024/03/24 04:49:02;;;;;;;15.98;8.23;;;;;;;4.64;100.00;99673.69;6249870;28;20053;-76
2024/03/24 04:52:02;;;;;;;13.30;6.97;;;;;;;4.68;100.00;99669.16;6248890;28;20045;-76
2024/03/24 04:55:06;;;;;;;17.48;8.02;;;;;;;4.66;100.00;99666.66;6249221;28;20045;-76
2024/03/24 04:58:08;;;;;;;14.07;8.18;;;;;;;4.65;100.00;99656.31;6249411;28;20049;-76
2024/03/24 05:01:11;;;;;;;18.90;9.43;;;;;;;4.72;100.00;99652.50;6248871;28;20053;-78
2024/03/24 05:04:11;;;;;;;23.60;8.63;;;;;;;4.77;100.00;99656.59;6241508;28;20397;-77
2024/03/24 05:07:12;;;;;;;18.38;9.00;;;;;;;4.87;100.00;99648.34;6249006;28;20129;-77
2024/03/24 05:10:14;;;;;;;17.42;8.90;;;;;;;4.90;100.00;99648.19;6252845;28;20045;-77
2024/03/24 05:13:16;;;;;;;20.50;9.73;;;;;;;4.90;100.00;99654.22;6253645;28;20128;-77
2024/03/24 05:16:17;;;;;;;24.10;10.80;;;;;;;4.90;100.00;99651.63;6253139;28;20056;-77
2024/03/24 05:19:18;;;;;;;21.10;9.77;;;;;;;4.93;100.00;99656.69;6243242;28;20073;-78
2024/03/24 05:22:19;;;;;;;24.73;9.80;;;;;;;4.96;100.00;99647.91;6251313;28;20361;-80
2024/03/24 05:25:22;;;;;;;19.27;9.85;;;;;;;4.89;100.00;99651.72;6253280;28;20045;-80
2024/03/24 05:28:23;;;;;;;23.27;9.20;;;;;;;4.96;100.00;99645.31;6245784;28;20062;-80
2024/03/24 05:31:24;;;;;;;18.95;9.85;;;;;;;4.98;100.00;99644.31;6243198;28;20042;-79
2024/03/24 05:34:26;;;;;;;21.65;10.77;;;;;;;4.97;100.00;99642.63;6240429;28;20061;-79
2024/03/24 05:37:28;;;;;;;18.05;9.00;;;;;;;5.00;100.00;99650.28;6253480;28;20505;-80
2024/03/24 05:40:31;;;;;;;19.17;9.85;;;;;;;5.00;100.00;99659.88;6253209;28;20053;-79
2024/03/24 05:43:31;;;;;;;15.00;8.10;;;;;;;4.94;100.00;99642.75;6253548;28;20052;-80
2024/03/24 05:46:32;;;;;;;25.52;10.48;;;;;;;4.95;100.00;99657.50;6250203;28;20431;-79
2024/03/24 05:49:33;;;;;;;19.48;10.75;;;;;;;4.91;100.00;99652.50;6244892;28;20046;-80
2024/03/24 05:52:36;;;;;;;17.65;10.30;;;;;;;4.89;100.00;99659.53;6278233;23;20067;-77
2024/03/24 05:55:37;;;;;;;21.67;9.20;;;;;;;4.88;100.00;99657.84;6277576;28;20088;-76
2024/03/24 05:58:39;;;;;;;15.52;8.50;;;;;;;4.80;100.00;99674.66;6277698;28;20057;-79
2024/03/24 06:01:39;;;;;;;15.57;8.18;;;;;;;4.84;100.00;99662.34;6273042;28;20061;-76
2024/03/24 06:04:41;;;;;;;16.75;9.50;;;;;;;4.84;100.00;99662.34;6252834;28;20434;-76
2024/03/24 06:07:41;;;;;;;17.20;7.85;;;;;;;4.77;100.00;99667.00;6252400;28;20171;-77
2024/03/24 06:10:45;;;;;;;14.57;8.05;;;;;;;4.77;100.00;99660.97;6247967;28;20053;-78
2024/03/24 06:13:45;;;;;;;13.63;7.93;;;;;;;4.76;100.00;99660.09;6249201;28;20041;-79
2024/03/24 06:16:47;;;;;;;13.57;7.90;;;;;;;4.87;100.00;99659.59;6252491;28;20346;-78
2024/03/24 06:19:47;;;;;;;13.73;7.95;;;;;;;4.91;100.00;99649.91;6242268;28;20172;-78
2024/03/24 06:22:49;;;;;;;16.60;7.95;;;;;;;4.92;100.00;99656.78;6252475;28;20342;-78
2024/03/24 06:25:50;;;;;;;17.38;7.78;;;;;;;4.90;100.00;99656.00;6252050;28;20041;-80
2024/03/24 06:28:53;;;;;;;15.82;8.10;;;;;;;4.98;100.00;99667.72;6252374;28;20129;-79
2024/03/24 06:31:53;;;;;;;13.52;7.22;;;;;;;5.01;100.00;99661.56;6251787;28;20147;-80
2024/03/24 06:34:54;;;;;;;11.63;7.07;;;;;;;5.00;100.00;99652.91;6251773;28;20045;-80
2024/03/24 06:37:56;;;;;;;14.40;6.82;;;;;;;5.01;100.00;99667.59;6243788;28;20045;-80
2024/03/24 06:40:58;;;;;;;15.18;7.72;;;;;;;5.01;100.00;99657.19;6251246;28;20049;-80
2024/03/24 06:43:59;;;;;;;12.35;6.60;;;;;;;5.00;100.00;99659.88;6243484;28;20353;-80
2024/03/24 06:47:00;;;;;;;17.90;8.07;;;;;;;4.98;100.00;99649.50;6251666;28;20048;-79
2024/03/24 06:50:01;;;;;;;13.55;7.45;;;;;;;5.01;100.00;99653.75;6251235;28;20046;-80
2024/03/24 06:53:02;;;;;;;15.68;7.25;;;;;;;5.09;100.00;99655.06;6251613;28;20052;-80
2024/03/24 06:56:05;;;;;;;12.57;7.40;;;;;;;5.12;100.00;99648.00;6251332;28;20045;-79
2024/03/24 06:59:06;;;;;;;19.35;7.78;;;;;;;5.21;100.00;99656.19;6251695;28;20053;-79
2024/03/24 07:02:08;;;;;;;17.10;7.97;;;;;;;5.19;100.00;99650.25;6250803;28;20361;-79
2024/03/24 07:05:09;;;;;;;12.73;7.28;;;;;;;5.21;100.00;99658.81;6251517;28;20056;-79
2024/03/24 07:08:10;;;;;;;10.50;6.72;;;;;;;5.16;100.00;99655.59;6251383;28;20132;-79
2024/03/24 07:11:14;;;;;;;14.57;7.35;;;;;;;5.19;100.00;99657.22;6250590;28;20060;-79
2024/03/24 07:14:16;;;;;;;14.82;7.10;;;;;;;5.22;100.00;99650.09;6251377;28;20084;-79
2024/03/24 07:17:16;;;;;;;9.77;5.93;;;;;;;5.17;100.00;99643.41;6250807;28;20049;-79
2024/03/24 07:20:17;;;;;;;12.13;6.47;;;;;;;5.14;100.00;99651.38;6250662;28;20052;-79
2024/03/24 07:23:18;;;;;;;11.60;5.72;;;;;;;5.22;100.00;99638.81;6238345;28;20054;-80
2024/03/24 07:26:20;;;;;;;10.52;5.50;;;;;;;5.31;100.00;99657.47;6235266;28;20048;-79
2024/03/24 07:29:21;;;;;;;13.02;6.05;;;;;;;5.34;100.00;99653.84;6251071;28;20057;-79
2024/03/24 07:32:22;;;;;;;8.98;5.45;;;;;;;5.33;100.00;99649.56;6228104;28;20053;-80
2024/03/24 07:35:23;;;;;;;14.32;6.43;;;;;;;5.40;100.00;99652.69;6243710;28;20049;-79
2024/03/24 07:38:24;;;;;;;8.85;3.70;;;;;;;5.21;100.00;99656.19;6225899;28;20061;-78
2024/03/24 07:41:27;;;;;;;6.00;3.05;;;;;;;5.22;100.00;99654.44;6243670;28;20456;-78
2024/03/24 07:44:27;;;;;;;3.30;2.40;;;;;;;5.32;100.00;99653.94;6219739;28;20053;-79
2024/03/24 07:47:28;;;;;;;4.78;2.72;;;;;;;5.29;100.00;99666.25;6243979;28;20354;-80
2024/03/24 07:50:30;;;;;;;3.95;2.67;;;;;;;5.21;100.00;99655.38;6249827;28;20049;-79
2024/03/24 07:53:30;;;;;;;3.63;2.10;;;;;;;5.30;100.00;99666.19;6238341;28;20446;-79
2024/03/24 07:56:33;;;;;;;3.90;2.20;;;;;;;5.38;100.00;99662.34;6224094;28;20057;-79
2024/03/24 07:59:34;;;;;;;2.90;1.73;;;;;;;5.33;100.00;99660.81;6225152;28;20446;-80
2024/03/24 08:02:35;;;;;;;3.90;2.05;;;;;;;5.46;100.00;99657.63;6233406;28;20056;-79
2024/03/24 08:05:37;;;;;;;3.25;2.05;;;;;;;5.47;100.00;99662.75;6235793;28;20045;-78
2024/03/24 08:08:38;;;;;;;3.00;1.83;;;;;;;5.53;100.00;99665.03;6248455;28;20053;-78
2024/03/24 08:11:40;;;;;;;2.55;1.75;;;;;;;5.59;100.00;99663.91;6248442;28;20046;-79
2024/03/24 08:14:42;;;;;;;3.10;1.60;;;;;;;5.67;100.00;99663.50;6249605;28;20337;-79
2024/03/24 08:17:43;;;;;;;4.22;1.55;;;;;;;5.69;100.00;99659.06;6249469;28;20331;-78
2024/03/24 08:20:48;;;;;;;2.97;1.83;;;;;;;5.82;100.00;99655.75;6249699;28;20049;-78
2024/03/24 08:23:48;;;;;;;3.13;2.10;;;;;;;5.87;100.00;99658.13;6249923;28;20042;-78
2024/03/24 08:26:50;;;;;;;4.03;1.90;;;;;;;5.83;100.00;99660.03;6249837;28;20045;-78
2024/03/24 08:29:51;;;;;;;2.97;1.20;;;;;;;5.83;100.00;99661.81;6249462;28;20053;-79
2024/03/24 08:32:52;;;;;;;6.80;1.90;;;;;;;5.76;100.00;99663.03;6250069;28;20057;-78
2024/03/24 08:35:54;;;;;;;4.53;1.65;;;;;;;5.95;100.00;99669.03;6249604;28;20045;-79
2024/03/24 08:38:54;;;;;;;3.78;1.88;;;;;;;5.97;100.00;99671.56;6250020;28;20442;-78
2024/03/24 08:41:57;;;;;;;1.50;1.40;;;;;;;6.03;100.00;99677.28;6249448;28;20052;-79
2024/03/24 08:44:58;;;;;;;2.60;1.67;;;;;;;6.08;100.00;99672.66;6253184;28;20041;-78
2024/03/24 08:47:59;;;;;;;4.95;2.63;;;;;;;6.32;100.00;99682.78;6254684;28;20389;-78
2024/03/24 08:50:59;;;;;;;10.77;1.80;;;;;;;6.43;100.00;99674.38;6254242;28;20057;-79
2024/03/24 08:54:01;;;;;;;2.65;1.25;;;;;;;6.53;100.00;99671.16;6254349;28;20128;-79
2024/03/24 08:57:04;;;;;;;4.28;1.48;;;;;;;6.69;100.00;99655.53;6254190;28;20061;-78
2024/03/24 09:00:06;;;;;;;3.92;1.98;;;;;;;6.85;100.00;99650.28;6253989;28;20135;-78
2024/03/24 09:03:07;;;;;;;3.70;1.50;;;;;;;6.98;100.00;99664.34;6254151;28;20103;-79
2024/03/24 09:06:07;;;;;;;4.47;1.23;;;;;;;7.06;100.00;99674.38;6253995;28;20046;-80
2024/03/24 09:09:09;;;;;;;5.40;1.60;;;;;;;6.99;100.00;99673.03;6254043;28;20071;-81
2024/03/24 09:12:10;;;;;;;3.38;1.02;;;;;;;6.84;100.00;99648.59;6245957;28;20054;-78
2024/03/24 09:15:12;;;;;;;4.80;1.80;;;;;;;6.89;100.00;99664.03;6237588;28;20068;-80
2024/03/24 09:18:13;;;;;;;2.15;1.10;;;;;;;6.97;100.00;99660.06;6253564;28;20052;-78
2024/03/24 09:21:14;;;;;;;2.08;1.38;;;;;;;7.01;100.00;99648.50;6253230;28;20061;-79
2024/03/24 09:24:15;;;;;;;1.75;1.38;;;;;;;7.20;100.00;99643.09;6254075;28;20508;-78
2024/03/24 09:27:17;;;;;;;6.22;1.83;;;;;;;7.34;100.00;99652.75;6237571;28;20046;-78
2024/03/24 09:30:20;;;;;;;6.30;1.40;;;;;;;7.22;100.00;99656.91;6253282;28;20057;-78
2024/03/24 09:33:20;;;;;;;5.90;1.40;;;;;;;7.12;100.00;99656.56;6253702;28;20082;-81
2024/03/24 09:36:22;;;;;;;2.47;1.35;;;;;;;7.22;100.00;99662.16;6253219;28;20460;-78
2024/03/24 09:39:23;;;;;;;1.65;1.40;;;;;;;7.24;100.00;99649.81;6253539;28;20057;-78
2024/03/24 09:42:27;;;;;;;3.63;1.25;;;;;;;7.40;100.00;99644.53;6252912;28;20046;-78
2024/03/24 09:45:30;;;;;;;5.38;2.22;;;;;;;7.38;100.00;99642.03;6253180;28;20049;-78
2024/03/24 09:48:33;;;;;;;8.30;1.67;;;;;;;7.29;100.00;99637.31;6253120;28;20072;-78
2024/03/24 09:51:35;;;;;;;3.72;0.98;;;;;;;7.18;100.00;99636.28;6252044;28;20049;-77
2024/03/24 09:54:37;;;;;;;4.32;1.40;;;;;;;7.15;100.00;99633.84;6250910;28;20049;-78
2024/03/24 09:57:40;;;;;;;5.82;1.25;;;;;;;7.06;100.00;99649.09;6251293;28;20052;-80
2024/03/24 10:00:41;;;;;;;3.47;1.33;;;;;;;7.17;100.00;99639.78;6251003;28;20044;-79
2024/03/24 10:03:44;;;;;;;6.43;1.45;;;;;;;7.35;100.00;99639.56;6251441;28;20046;-79
2024/03/24 10:06:45;;;;;;;5.25;1.27;;;;;;;7.49;100.00;99635.31;6250169;28;20056;-78
2024/03/24 10:09:46;;;;;;;4.60;1.40;;;;;;;7.59;100.00;99629.47;6251101;28;20045;-78
2024/03/24 10:12:55;;;;;;;7.10;1.15;;;;;;;7.86;100.00;99624.38;6251267;28;20049;-78
2024/03/24 10:15:56;;;;;;;5.05;1.10;;;;;;;7.98;100.00;99622.78;6251298;28;20430;-78
2024/03/24 10:18:58;;;;;;;5.80;1.65;;;;;;;8.08;100.00;99631.78;6251372;28;20045;-80
2024/03/24 10:21:58;;;;;;;3.95;1.60;;;;;;;8.01;100.00;99616.53;6250581;28;20041;-79
2024/03/24 10:25:00;;;;;;;8.20;1.02;;;;;;;8.03;100.00;99610.25;6252184;28;20449;-80
2024/03/24 10:28:02;;;;;;;6.70;1.95;;;;;;;8.02;100.00;99619.06;6251575;28;20048;-79
2024/03/24 10:31:07;;;;;;;6.57;1.33;;;;;;;8.04;100.00;99614.59;6250832;28;20060;-79
2024/03/24 10:34:08;;;;;;;3.72;1.42;;;;;;;7.94;100.00;99612.59;6250852;28;20049;-80
2024/03/24 10:37:09;;;;;;;5.05;0.75;;;;;;;7.91;100.00;99610.19;6250735;28;20045;-80
2024/03/24 10:40:13;;;;;;;4.70;1.30;;;;;;;7.90;100.00;99601.47;6250367;28;20076;-79
2024/03/24 10:43:15;;;;;;;5.40;0.98;;;;;;;7.97;100.00;99605.41;6250996;28;20061;-79
2024/03/24 10:46:18;;;;;;;14.48;2.72;;;;;;;7.97;100.00;99609.81;6234300;28;20619;-79
2024/03/24 10:49:22;;;;;;;3.95;1.65;;;;;;;8.05;100.00;99611.03;6250842;28;20053;-79
2024/03/24 10:52:23;;;;;;;2.40;1.00;;;;;;;8.07;100.00;99585.59;6215943;28;991407;-81
2024/03/24 10:55:25;;;;;;;13.63;1.45;;;;;;;8.03;100.00;99599.78;6251690;28;20434;-79
2024/03/24 10:58:27;;;;;;;8.82;1.65;;;;;;;7.71;100.00;99606.13;6251889;28;20042;-79
2024/03/24 11:01:29;;;;;;;3.03;1.05;;;;;;;7.20;100.00;99614.34;6250890;28;20072;-78
2024/03/24 11:04:31;;;;;;;3.58;1.17;;;;;;;6.84;100.00;99620.72;6251504;28;20060;-80
2024/03/24 11:07:32;;;;;;;5.28;1.80;;;;;;;6.54;100.00;99636.34;6249444;28;20457;-79
2024/03/24 11:10:34;;;;;;;7.85;1.33;;;;;;;6.24;100.00;99625.78;6250768;28;20139;-79
2024/03/24 11:13:37;;;;;;;0.73;0.65;;;;;;;6.10;100.00;99636.94;6251315;28;20443;-81
2024/03/24 11:16:37;;;;;;;3.72;1.23;;;;;;;6.00;100.00;99638.34;6250834;28;20120;-82
2024/03/24 11:19:47;;;;;;;5.78;1.02;;;;;;;6.05;100.00;99633.75;6250510;28;20041;-81
2024/03/24 11:22:48;;;;;;;3.13;0.85;;;;;;;5.98;100.00;99639.34;6243040;28;20049;-81
2024/03/24 11:25:50;;;;;;;1.98;0.80;;;;;;;5.84;100.00;99625.22;6250879;28;20049;-80
2024/03/24 11:28:52;;;;;;;1.77;0.85;;;;;;;5.85;100.00;99628.66;6250767;28;20044;-82
2024/03/24 11:31:55;;;;;;;5.95;0.98;;;;;;;5.76;100.00;99629.97;6250099;28;20045;-80
2024/03/24 11:34:56;;;;;;;9.40;0.80;;;;;;;5.64;100.00;99630.63;6250614;28;20053;-79
2024/03/24 11:37:59;;;;;;;2.28;1.13;;;;;;;5.60;100.00;99621.28;6250613;28;20086;-82
2024/03/24 11:40:59;;;;;;;2.83;0.70;;;;;;;5.68;100.00;99603.50;6250188;28;20042;-79
2024/03/24 11:44:03;;;;;;;4.50;0.82;;;;;;;5.81;100.00;99599.34;6250965;28;20052;-79
2024/03/24 11:47:04;;;;;;;1.85;0.50;;;;;;;5.93;100.00;99600.47;6250377;28;20049;-79
2024/03/24 11:50:06;;;;;;;1.05;0.50;;;;;;;6.01;100.00;99602.69;6250234;28;20441;-80
2024/03/24 11:53:09;;;;;;;2.42;0.57;;;;;;;6.26;100.00;99599.59;6275748;23;20049;-76
2024/03/24 11:56:09;;;;;;;0.70;0.60;;;;;;;6.18;100.00;99593.97;6267337;28;20433;-76
2024/03/24 11:59:13;;;;;;;3.42;0.90;;;;;;;6.16;100.00;99587.97;6265859;28;20056;-76
2024/03/24 12:02:14;;;;;;;2.97;0.82;;;;;;;6.28;100.00;99587.31;6267844;28;20193;-77
2024/03/24 12:05:15;;;;;;;0.88;0.85;;;;;;;6.44;100.00;99584.69;6250261;28;20045;-77
2024/03/24 12:08:18;;;;;;;5.97;0.88;;;;;;;6.68;100.00;99585.97;6249176;28;20041;-77
2024/03/24 12:11:19;;;;;;;5.13;0.77;;;;;;;7.04;100.00;99580.44;6234147;28;20087;-78
2024/03/24 12:14:21;;;;;;;3.33;0.90;;;;;;;7.27;100.00;99571.25;6250233;28;20335;-76
2024/03/24 12:17:23;;;;;;;6.28;1.27;;;;;;;7.66;100.00;99572.44;6249854;28;20354;-74
2024/03/24 12:20:25;;;;;;;3.88;1.00;;;;;;;7.83;100.00;99564.41;6254333;28;20357;-75
2024/03/24 12:23:26;;;;;;;3.25;1.27;;;;;;;7.93;100.00;99569.06;6255124;28;20049;-76
2024/03/24 12:26:27;;;;;;;4.72;1.20;;;;;;;7.72;100.00;99564.22;6253909;28;20056;-76
2024/03/24 12:29:30;;;;;;;1.23;0.95;;;;;;;7.50;100.00;99553.38;6248187;28;20072;-76
2024/03/24 12:32:30;;;;;;;2.70;0.75;;;;;;;7.50;100.00;99558.59;6254630;28;20053;-76
2024/03/24 12:35:32;;;;;;;2.65;1.30;;;;;;;7.55;100.00;99546.94;6254705;28;20365;-75
2024/03/24 12:38:33;;;;;;;5.00;1.00;;;;;;;7.54;100.00;99544.41;6255095;28;20056;-76
2024/03/24 12:41:34;;;;;;;1.95;1.48;;;;;;;7.65;100.00;99539.38;6254303;28;20053;-76
2024/03/24 12:44:36;;;;;;;6.80;1.23;;;;;;;7.87;100.00;99544.13;6254763;28;20393;-76
2024/03/24 12:47:37;;;;;;;5.63;1.23;;;;;;;8.11;100.00;99532.13;6254592;28;20053;-77
2024/03/24 12:50:37;;;;;;;3.33;1.13;;;;;;;8.41;100.00;99533.81;6254000;28;20049;-76
2024/03/24 12:53:48;;;;;;;6.25;1.33;;;;;;;8.37;100.00;99527.09;6254426;28;20053;-76
2024/03/24 12:56:48;;;;;;;1.52;0.75;;;;;;;8.52;100.00;99527.88;6254234;28;20456;-76
2024/03/24 12:59:58;;;;;;;5.57;1.40;;;;;;;8.43;100.00;99526.69;6254064;28;20041;-77
2024/03/24 13:03:00;;;;;;;;;;;;;;;8.16;100.00;99512.69;6254691;28;20045;-76
2024/03/24 13:06:06;;;;;;;1.38;1.17;;;;;;;7.93;100.00;99508.91;6245963;28;19925;-75
2024/03/24 13:09:07;;;;;;;2.38;1.20;;;;;;;7.80;100.00;99533.19;6253113;28;20048;-76
2024/03/24 13:12:10;;;;;;;4.95;1.23;;;;;;;7.78;100.00;99516.78;6232169;28;20371;-75
2024/03/24 13:15:11;;;;;;;1.90;0.80;;;;;;;7.94;100.00;99516.66;6227384;28;20465;-74
2024/03/24 13:18:17;;;;;;;2.83;1.00;;;;;;;7.96;100.00;99506.94;6230021;28;20046;-76
2024/03/24 13:21:22;;;;;;;1.67;0.95;;;;;;;7.82;100.00;99510.41;6229670;28;20049;-76
2024/03/24 13:24:25;;;;;;;4.68;1.15;;;;;;;7.86;100.00;99509.31;6225019;28;20054;-73
2024/03/24 13:27:34;;;;;;;3.65;0.75;;;;;;;7.85;100.00;99499.75;6216257;28;20049;-80
2024/03/24 13:30:39;;;;;;;6.32;0.95;;;;;;;7.85;100.00;99504.16;6227893;28;20050;-75
2024/03/24 13:33:39;;;;;;;2.35;0.95;;;;;;;7.75;100.00;99500.44;6218349;28;20139;-76
2024/03/24 13:36:47;;;;;;;2.00;0.88;;;;;;;7.68;100.00;99510.44;6222621;28;20446;-76
2024/03/24 13:39:56;;;;;;;4.30;1.40;;;;;;;7.63;100.00;99497.66;6224350;28;20127;-76
2024/03/24 13:43:06;;;;;;;;;;;;;;;7.59;100.00;99500.53;6226855;28;20046;-77
2024/03/24 13:46:20;;;;;;;1.70;0.75;;;;;;;7.55;100.00;99496.44;6230183;28;19921;-75
2024/03/24 13:49:21;;;;;;;3.85;0.88;;;;;;;7.67;100.00;99493.03;6246449;28;20362;-76
2024/03/24 13:52:23;;;;;;;1.70;0.80;;;;;;;7.73;100.00;99489.22;6252488;28;20058;-75
2024/03/24 13:55:24;;;;;;;0.98;0.73;;;;;;;7.83;100.00;99499.03;6230130;28;20137;-75
2024/03/24 13:58:26;;;;;;;2.15;0.80;;;;;;;7.87;100.00;99491.81;6245491;28;20402;-78
2024/03/24 14:01:28;;;;;;;1.65;0.95;;;;;;;7.98;100.00;99496.38;6222147;28;20053;-75
2024/03/24 14:04:30;;;;;;;4.43;1.02;;;;;;;7.97;100.00;99486.84;6221553;28;20053;-76
2024/03/24 14:07:30;;;;;;;1.48;0.73;;;;;;;7.79;100.00;99470.53;6224922;28;20053;-76
2024/03/24 14:10:32;;;;;;;2.60;0.70;;;;;;;7.70;100.00;99471.09;6228350;28;20042;-75